sensor_id;sensor_type;location;lat;lon;timestamp;P1;durP1;ratioP1;P2;durP2;ratioP2
48859;SDS011;34679;51.436;-2.518;2023-01-20T00:00:28;16.00;;;6.88;;
48859;SDS011;34679;51.436;-2.518;2023-01-20T00:02:55;11.07;;;6.50;;
48859;SDS011;34679;51.436;-2.518;2023-01-20T00:05:21;17.17;;;8.75;;
48859;SDS011;34679;51.436;-2.518;2023-01-20T00:07:46;14.65;;;7.32;;
48859;SDS011;34679;51.436;-2.518;2023-01-20T00:10:12;21.27;;;9.00;;
48859;SDS011;34679;51.436;-2.518;2023-01-20T00:12:38;20.90;;;9.45;;
48859;SDS011;34679;51.436;-2.518;2023-01-20T00:15:04;20.00;;;8.82;;
48859;SDS011;34679;51.436;-2.518;2023-01-20T00:17:31;21.65;;;8.98;;
48859;SDS011;34679;51.436;-2.518;2023-01-20T00:19:57;27.60;;;9.23;;
48859;SDS011;34679;51.436;-2.518;2023-01-20T00:22:22;17.95;;;9.27;;
48859;SDS011;34679;51.436;-2.518;2023-01-20T00:24:48;20.48;;;8.80;;
48859;SDS011;34679;51.436;-2.518;2023-01-20T00:27:14;24.65;;;9.48;;
48859;SDS011;34679;51.436;-2.518;2023-01-20T00:29:40;19.40;;;9.07;;
48859;SDS011;34679;51.436;-2.518;2023-01-20T00:32:08;17.13;;;8.45;;
48859;SDS011;34679;51.436;-2.518;2023-01-20T00:34:35;21.13;;;8.18;;
48859;SDS011;34679;51.436;-2.518;2023-01-20T00:37:01;18.83;;;7.65;;
48859;SDS011;34679;51.436;-2.518;2023-01-20T00:39:26;16.27;;;6.35;;
48859;SDS011;34679;51.436;-2.518;2023-01-20T00:41:52;13.52;;;5.85;;
48859;SDS011;34679;51.436;-2.518;2023-01-20T00:44:18;16.73;;;5.78;;
48859;SDS011;34679;51.436;-2.518;2023-01-20T00:46:43;13.02;;;5.63;;
48859;SDS011;34679;51.436;-2.518;2023-01-20T00:49:11;15.68;;;6.55;;
48859;SDS011;34679;51.436;-2.518;2023-01-20T00:51:37;17.08;;;7.15;;
48859;SDS011;34679;51.436;-2.518;2023-01-20T00:54:02;13.15;;;5.90;;
48859;SDS011;34679;51.436;-2.518;2023-01-20T00:56:28;14.43;;;5.85;;
48859;SDS011;34679;51.436;-2.518;2023-01-20T00:58:54;10.68;;;6.18;;
48859;SDS011;34679;51.436;-2.518;2023-01-20T01:01:20;10.93;;;5.80;;
48859;SDS011;34679;51.436;-2.518;2023-01-20T01:03:46;12.27;;;4.18;;
48859;SDS011;34679;51.436;-2.518;2023-01-20T01:06:13;10.68;;;4.07;;
48859;SDS011;34679;51.436;-2.518;2023-01-20T01:08:40;7.25;;;2.33;;
48859;SDS011;34679;51.436;-2.518;2023-01-20T01:11:06;7.93;;;2.22;;
48859;SDS011;34679;51.436;-2.518;2023-01-20T01:13:33;10.52;;;2.17;;
48859;SDS011;34679;51.436;-2.518;2023-01-20T01:15:59;11.27;;;2.22;;
48859;SDS011;34679;51.436;-2.518;2023-01-20T01:18:25;12.00;;;2.85;;
48859;SDS011;34679;51.436;-2.518;2023-01-20T01:20:51;12.77;;;1.92;;
48859;SDS011;34679;51.436;-2.518;2023-01-20T01:23:16;14.48;;;2.65;;
48859;SDS011;34679;51.436;-2.518;2023-01-20T01:25:42;5.93;;;2.30;;
48859;SDS011;34679;51.436;-2.518;2023-01-20T01:28:08;8.27;;;2.35;;
48859;SDS011;34679;51.436;-2.518;2023-01-20T01:30:34;4.20;;;1.88;;
48859;SDS011;34679;51.436;-2.518;2023-01-20T01:32:59;8.82;;;2.00;;
48859;SDS011;34679;51.436;-2.518;2023-01-20T01:35:25;3.45;;;2.08;;
48859;SDS011;34679;51.436;-2.518;2023-01-20T01:37:51;7.05;;;2.00;;
48859;SDS011;34679;51.436;-2.518;2023-01-20T01:40:16;3.65;;;1.63;;
48859;SDS011;34679;51.436;-2.518;2023-01-20T01:42:42;6.63;;;1.70;;
48859;SDS011;34679;51.436;-2.518;2023-01-20T01:50:05;5.45;;;1.88;;
48859;SDS011;34679;51.436;-2.518;2023-01-20T01:52:34;7.70;;;1.83;;
48859;SDS011;34679;51.436;-2.518;2023-01-20T01:55:00;8.52;;;2.25;;
48859;SDS011;34679;51.436;-2.518;2023-01-20T01:57:27;7.85;;;1.73;;
48859;SDS011;34679;51.436;-2.518;2023-01-20T01:59:55;9.15;;;1.75;;
48859;SDS011;34679;51.436;-2.518;2023-01-20T02:02:21;6.07;;;1.85;;
48859;SDS011;34679;51.436;-2.518;2023-01-20T02:04:47;8.55;;;2.33;;
48859;SDS011;34679;51.436;-2.518;2023-01-20T02:07:13;9.82;;;3.30;;
48859;SDS011;34679;51.436;-2.518;2023-01-20T02:09:42;6.47;;;1.77;;
48859;SDS011;34679;51.436;-2.518;2023-01-20T02:12:09;7.03;;;2.20;;
48859;SDS011;34679;51.436;-2.518;2023-01-20T02:14:39;5.78;;;2.03;;
48859;SDS011;34679;51.436;-2.518;2023-01-20T02:31:20;4.28;;;1.70;;
48859;SDS011;34679;51.436;-2.518;2023-01-20T02:34:13;9.88;;;1.63;;
48859;SDS011;34679;51.436;-2.518;2023-01-20T02:37:14;10.60;;;1.70;;
48859;SDS011;34679;51.436;-2.518;2023-01-20T02:42:40;8.98;;;1.65;;
48859;SDS011;34679;51.436;-2.518;2023-01-20T02:45:10;5.50;;;1.73;;
48859;SDS011;34679;51.436;-2.518;2023-01-20T02:47:56;3.63;;;2.13;;
48859;SDS011;34679;51.436;-2.518;2023-01-20T02:50:28;4.82;;;2.03;;
48859;SDS011;34679;51.436;-2.518;2023-01-20T02:53:04;4.80;;;1.60;;
48859;SDS011;34679;51.436;-2.518;2023-01-20T02:55:33;9.95;;;2.20;;
48859;SDS011;34679;51.436;-2.518;2023-01-20T02:58:06;8.05;;;2.53;;
48859;SDS011;34679;51.436;-2.518;2023-01-20T03:00:38;10.35;;;2.20;;
48859;SDS011;34679;51.436;-2.518;2023-01-20T03:03:09;9.75;;;1.73;;
48859;SDS011;34679;51.436;-2.518;2023-01-20T03:05:40;9.43;;;2.35;;
48859;SDS011;34679;51.436;-2.518;2023-01-20T03:10:39;9.40;;;1.50;;
48859;SDS011;34679;51.436;-2.518;2023-01-20T03:13:13;9.52;;;2.20;;
48859;SDS011;34679;51.436;-2.518;2023-01-20T03:15:59;6.50;;;1.52;;
48859;SDS011;34679;51.436;-2.518;2023-01-20T03:18:28;6.53;;;1.73;;
48859;SDS011;34679;51.436;-2.518;2023-01-20T03:20:56;9.15;;;2.00;;
48859;SDS011;34679;51.436;-2.518;2023-01-20T03:23:25;7.80;;;2.65;;
48859;SDS011;34679;51.436;-2.518;2023-01-20T03:25:52;10.63;;;2.85;;
48859;SDS011;34679;51.436;-2.518;2023-01-20T03:28:19;11.18;;;2.55;;
48859;SDS011;34679;51.436;-2.518;2023-01-20T03:30:45;11.25;;;2.78;;
48859;SDS011;34679;51.436;-2.518;2023-01-20T03:33:11;20.02;;;3.10;;
48859;SDS011;34679;51.436;-2.518;2023-01-20T03:35:39;10.73;;;4.22;;
48859;SDS011;34679;51.436;-2.518;2023-01-20T03:38:05;8.18;;;3.25;;
48859;SDS011;34679;51.436;-2.518;2023-01-20T03:40:33;6.95;;;3.22;;
48859;SDS011;34679;51.436;-2.518;2023-01-20T03:43:13;11.52;;;2.92;;
48859;SDS011;34679;51.436;-2.518;2023-01-20T03:46:18;11.75;;;2.47;;
48859;SDS011;34679;51.436;-2.518;2023-01-20T03:48:50;5.78;;;2.13;;
48859;SDS011;34679;51.436;-2.518;2023-01-20T03:51:32;11.95;;;2.45;;
48859;SDS011;34679;51.436;-2.518;2023-01-20T03:54:21;12.77;;;2.60;;
48859;SDS011;34679;51.436;-2.518;2023-01-20T03:56:56;6.25;;;2.35;;
48859;SDS011;34679;51.436;-2.518;2023-01-20T03:59:29;7.55;;;2.10;;
48859;SDS011;34679;51.436;-2.518;2023-01-20T04:01:59;11.07;;;2.83;;
48859;SDS011;34679;51.436;-2.518;2023-01-20T04:04:28;7.97;;;2.40;;
48859;SDS011;34679;51.436;-2.518;2023-01-20T04:06:57;6.43;;;2.40;;
48859;SDS011;34679;51.436;-2.518;2023-01-20T04:09:25;9.98;;;2.20;;
48859;SDS011;34679;51.436;-2.518;2023-01-20T04:11:54;9.27;;;2.00;;
48859;SDS011;34679;51.436;-2.518;2023-01-20T04:14:20;3.95;;;1.80;;
48859;SDS011;34679;51.436;-2.518;2023-01-20T04:16:50;9.52;;;2.20;;
48859;SDS011;34679;51.436;-2.518;2023-01-20T04:19:19;7.72;;;2.20;;
48859;SDS011;34679;51.436;-2.518;2023-01-20T04:21:49;12.40;;;2.10;;
48859;SDS011;34679;51.436;-2.518;2023-01-20T04:27:19;7.85;;;2.22;;
48859;SDS011;34679;51.436;-2.518;2023-01-20T04:29:45;16.80;;;2.33;;
48859;SDS011;34679;51.436;-2.518;2023-01-20T04:32:11;6.15;;;2.00;;
48859;SDS011;34679;51.436;-2.518;2023-01-20T04:34:37;7.85;;;2.05;;
48859;SDS011;34679;51.436;-2.518;2023-01-20T04:37:02;7.72;;;1.83;;
48859;SDS011;34679;51.436;-2.518;2023-01-20T04:39:28;10.60;;;1.73;;
48859;SDS011;34679;51.436;-2.518;2023-01-20T04:41:54;9.45;;;1.83;;
48859;SDS011;34679;51.436;-2.518;2023-01-20T04:44:19;9.27;;;1.75;;
48859;SDS011;34679;51.436;-2.518;2023-01-20T04:46:45;6.80;;;1.50;;
48859;SDS011;34679;51.436;-2.518;2023-01-20T04:49:11;7.85;;;2.30;;
48859;SDS011;34679;51.436;-2.518;2023-01-20T04:51:40;12.93;;;2.00;;
48859;SDS011;34679;51.436;-2.518;2023-01-20T04:54:06;15.07;;;2.35;;
48859;SDS011;34679;51.436;-2.518;2023-01-20T04:56:31;8.63;;;1.95;;
48859;SDS011;34679;51.436;-2.518;2023-01-20T04:58:57;11.80;;;1.80;;
48859;SDS011;34679;51.436;-2.518;2023-01-20T05:01:23;6.72;;;1.85;;
48859;SDS011;34679;51.436;-2.518;2023-01-20T05:03:49;12.02;;;1.70;;
48859;SDS011;34679;51.436;-2.518;2023-01-20T05:06:15;3.28;;;2.00;;
48859;SDS011;34679;51.436;-2.518;2023-01-20T05:08:41;5.32;;;1.67;;
48859;SDS011;34679;51.436;-2.518;2023-01-20T05:11:06;9.68;;;1.90;;
48859;SDS011;34679;51.436;-2.518;2023-01-20T05:13:32;9.50;;;1.83;;
48859;SDS011;34679;51.436;-2.518;2023-01-20T05:16:02;14.55;;;2.13;;
48859;SDS011;34679;51.436;-2.518;2023-01-20T05:18:29;9.40;;;2.40;;
48859;SDS011;34679;51.436;-2.518;2023-01-20T05:20:55;8.00;;;1.73;;
48859;SDS011;34679;51.436;-2.518;2023-01-20T05:23:20;13.45;;;2.38;;
48859;SDS011;34679;51.436;-2.518;2023-01-20T05:25:50;5.32;;;1.80;;
48859;SDS011;34679;51.436;-2.518;2023-01-20T05:28:16;12.73;;;1.73;;
48859;SDS011;34679;51.436;-2.518;2023-01-20T05:30:42;9.27;;;1.70;;
48859;SDS011;34679;51.436;-2.518;2023-01-20T05:33:08;5.22;;;2.03;;
48859;SDS011;34679;51.436;-2.518;2023-01-20T05:35:36;10.35;;;1.83;;
48859;SDS011;34679;51.436;-2.518;2023-01-20T05:38:02;9.93;;;1.50;;
48859;SDS011;34679;51.436;-2.518;2023-01-20T05:40:27;9.93;;;1.58;;
48859;SDS011;34679;51.436;-2.518;2023-01-20T05:42:57;4.10;;;1.30;;
48859;SDS011;34679;51.436;-2.518;2023-01-20T05:45:26;3.88;;;1.42;;
48859;SDS011;34679;51.436;-2.518;2023-01-20T05:47:53;3.33;;;1.63;;
48859;SDS011;34679;51.436;-2.518;2023-01-20T05:50:20;7.60;;;1.50;;
48859;SDS011;34679;51.436;-2.518;2023-01-20T05:52:46;6.80;;;1.48;;
48859;SDS011;34679;51.436;-2.518;2023-01-20T05:55:12;3.97;;;1.60;;
48859;SDS011;34679;51.436;-2.518;2023-01-20T05:57:37;6.47;;;1.75;;
48859;SDS011;34679;51.436;-2.518;2023-01-20T06:00:04;8.93;;;1.50;;
48859;SDS011;34679;51.436;-2.518;2023-01-20T06:02:30;3.67;;;1.27;;
48859;SDS011;34679;51.436;-2.518;2023-01-20T06:04:56;8.35;;;1.25;;
48859;SDS011;34679;51.436;-2.518;2023-01-20T06:07:25;8.48;;;2.38;;
48859;SDS011;34679;51.436;-2.518;2023-01-20T06:09:51;4.85;;;1.85;;
48859;SDS011;34679;51.436;-2.518;2023-01-20T06:12:17;6.03;;;2.45;;
48859;SDS011;34679;51.436;-2.518;2023-01-20T06:14:42;15.48;;;2.17;;
48859;SDS011;34679;51.436;-2.518;2023-01-20T06:17:08;8.07;;;1.80;;
48859;SDS011;34679;51.436;-2.518;2023-01-20T06:19:34;8.13;;;1.98;;
48859;SDS011;34679;51.436;-2.518;2023-01-20T06:22:00;9.00;;;1.75;;
48859;SDS011;34679;51.436;-2.518;2023-01-20T06:24:26;10.60;;;1.90;;
48859;SDS011;34679;51.436;-2.518;2023-01-20T06:26:52;4.97;;;2.38;;
48859;SDS011;34679;51.436;-2.518;2023-01-20T06:29:18;7.00;;;1.75;;
48859;SDS011;34679;51.436;-2.518;2023-01-20T06:31:44;5.78;;;1.42;;
48859;SDS011;34679;51.436;-2.518;2023-01-20T06:34:10;9.27;;;1.60;;
48859;SDS011;34679;51.436;-2.518;2023-01-20T06:36:36;9.13;;;2.13;;
48859;SDS011;34679;51.436;-2.518;2023-01-20T06:39:01;7.07;;;1.70;;
48859;SDS011;34679;51.436;-2.518;2023-01-20T06:41:27;7.28;;;1.77;;
48859;SDS011;34679;51.436;-2.518;2023-01-20T06:43:53;13.80;;;1.90;;
48859;SDS011;34679;51.436;-2.518;2023-01-20T06:46:19;3.55;;;1.95;;
48859;SDS011;34679;51.436;-2.518;2023-01-20T06:48:45;11.90;;;3.08;;
48859;SDS011;34679;51.436;-2.518;2023-01-20T06:51:11;12.05;;;1.92;;
48859;SDS011;34679;51.436;-2.518;2023-01-20T06:53:39;8.23;;;1.92;;
48859;SDS011;34679;51.436;-2.518;2023-01-20T06:56:06;13.35;;;2.45;;
48859;SDS011;34679;51.436;-2.518;2023-01-20T06:58:32;4.10;;;2.08;;
48859;SDS011;34679;51.436;-2.518;2023-01-20T07:01:03;8.38;;;1.48;;
48859;SDS011;34679;51.436;-2.518;2023-01-20T07:03:30;4.50;;;1.40;;
48859;SDS011;34679;51.436;-2.518;2023-01-20T07:05:57;5.10;;;1.88;;
48859;SDS011;34679;51.436;-2.518;2023-01-20T07:08:25;7.13;;;1.75;;
48859;SDS011;34679;51.436;-2.518;2023-01-20T07:10:51;8.65;;;1.20;;
48859;SDS011;34679;51.436;-2.518;2023-01-20T07:13:16;3.33;;;1.55;;
48859;SDS011;34679;51.436;-2.518;2023-01-20T07:15:42;11.45;;;1.50;;
48859;SDS011;34679;51.436;-2.518;2023-01-20T07:18:08;8.93;;;2.15;;
48859;SDS011;34679;51.436;-2.518;2023-01-20T07:20:33;8.55;;;2.10;;
48859;SDS011;34679;51.436;-2.518;2023-01-20T07:22:59;7.22;;;1.25;;
48859;SDS011;34679;51.436;-2.518;2023-01-20T07:25:26;5.15;;;1.70;;
48859;SDS011;34679;51.436;-2.518;2023-01-20T07:27:52;6.90;;;1.73;;
48859;SDS011;34679;51.436;-2.518;2023-01-20T07:30:18;9.63;;;1.85;;
48859;SDS011;34679;51.436;-2.518;2023-01-20T07:32:44;11.40;;;1.40;;
48859;SDS011;34679;51.436;-2.518;2023-01-20T07:35:09;7.82;;;1.70;;
48859;SDS011;34679;51.436;-2.518;2023-01-20T07:37:35;9.23;;;1.50;;
48859;SDS011;34679;51.436;-2.518;2023-01-20T07:40:01;10.30;;;2.50;;
48859;SDS011;34679;51.436;-2.518;2023-01-20T07:42:27;5.95;;;1.48;;
48859;SDS011;34679;51.436;-2.518;2023-01-20T07:44:52;7.35;;;1.67;;
48859;SDS011;34679;51.436;-2.518;2023-01-20T07:47:18;3.47;;;1.60;;
48859;SDS011;34679;51.436;-2.518;2023-01-20T07:49:44;6.07;;;1.60;;
48859;SDS011;34679;51.436;-2.518;2023-01-20T07:52:09;6.15;;;1.45;;
48859;SDS011;34679;51.436;-2.518;2023-01-20T07:54:35;3.45;;;1.23;;
48859;SDS011;34679;51.436;-2.518;2023-01-20T07:57:01;3.80;;;1.38;;
48859;SDS011;34679;51.436;-2.518;2023-01-20T07:59:26;10.27;;;1.70;;
48859;SDS011;34679;51.436;-2.518;2023-01-20T08:01:54;9.60;;;1.58;;
48859;SDS011;34679;51.436;-2.518;2023-01-20T08:04:19;5.45;;;1.95;;
48859;SDS011;34679;51.436;-2.518;2023-01-20T08:06:45;4.43;;;1.80;;
48859;SDS011;34679;51.436;-2.518;2023-01-20T08:09:12;6.55;;;1.63;;
48859;SDS011;34679;51.436;-2.518;2023-01-20T08:11:39;7.40;;;1.70;;
48859;SDS011;34679;51.436;-2.518;2023-01-20T08:14:05;5.43;;;1.40;;
48859;SDS011;34679;51.436;-2.518;2023-01-20T08:16:31;3.00;;;1.58;;
48859;SDS011;34679;51.436;-2.518;2023-01-20T08:18:56;6.28;;;1.70;;
48859;SDS011;34679;51.436;-2.518;2023-01-20T08:21:23;7.00;;;1.95;;
48859;SDS011;34679;51.436;-2.518;2023-01-20T08:23:51;10.88;;;2.00;;
48859;SDS011;34679;51.436;-2.518;2023-01-20T08:26:19;5.60;;;2.70;;
48859;SDS011;34679;51.436;-2.518;2023-01-20T08:28:45;11.02;;;2.05;;
48859;SDS011;34679;51.436;-2.518;2023-01-20T08:31:12;5.18;;;1.75;;
48859;SDS011;34679;51.436;-2.518;2023-01-20T08:33:40;14.10;;;2.17;;
48859;SDS011;34679;51.436;-2.518;2023-01-20T08:36:08;11.07;;;2.20;;
48859;SDS011;34679;51.436;-2.518;2023-01-20T08:38:36;8.73;;;2.10;;
48859;SDS011;34679;51.436;-2.518;2023-01-20T08:41:06;4.97;;;2.42;;
48859;SDS011;34679;51.436;-2.518;2023-01-20T08:43:33;8.40;;;1.77;;
48859;SDS011;34679;51.436;-2.518;2023-01-20T08:46:00;5.80;;;2.65;;
48859;SDS011;34679;51.436;-2.518;2023-01-20T08:48:27;7.38;;;1.92;;
48859;SDS011;34679;51.436;-2.518;2023-01-20T08:50:53;5.28;;;2.35;;
48859;SDS011;34679;51.436;-2.518;2023-01-20T08:53:19;6.47;;;2.25;;
48859;SDS011;34679;51.436;-2.518;2023-01-20T08:55:52;5.55;;;1.92;;
48859;SDS011;34679;51.436;-2.518;2023-01-20T08:58:23;8.35;;;2.00;;
48859;SDS011;34679;51.436;-2.518;2023-01-20T09:00:49;5.70;;;2.05;;
48859;SDS011;34679;51.436;-2.518;2023-01-20T09:03:14;9.07;;;2.42;;
48859;SDS011;34679;51.436;-2.518;2023-01-20T09:05:40;5.43;;;2.25;;
48859;SDS011;34679;51.436;-2.518;2023-01-20T09:08:06;6.30;;;2.05;;
48859;SDS011;34679;51.436;-2.518;2023-01-20T09:10:32;10.93;;;2.45;;
48859;SDS011;34679;51.436;-2.518;2023-01-20T09:12:58;5.97;;;2.42;;
48859;SDS011;34679;51.436;-2.518;2023-01-20T09:15:23;4.10;;;2.60;;
48859;SDS011;34679;51.436;-2.518;2023-01-20T09:17:50;4.03;;;2.30;;
48859;SDS011;34679;51.436;-2.518;2023-01-20T09:20:15;5.15;;;2.60;;
48859;SDS011;34679;51.436;-2.518;2023-01-20T09:22:41;8.80;;;2.70;;
48859;SDS011;34679;51.436;-2.518;2023-01-20T09:25:07;6.82;;;2.95;;
48859;SDS011;34679;51.436;-2.518;2023-01-20T09:27:34;10.98;;;5.68;;
48859;SDS011;34679;51.436;-2.518;2023-01-20T09:30:00;11.48;;;5.03;;
48859;SDS011;34679;51.436;-2.518;2023-01-20T09:32:26;9.02;;;3.92;;
48859;SDS011;34679;51.436;-2.518;2023-01-20T09:34:52;7.45;;;3.15;;
48859;SDS011;34679;51.436;-2.518;2023-01-20T09:37:17;13.50;;;3.80;;
48859;SDS011;34679;51.436;-2.518;2023-01-20T09:40:01;9.65;;;2.92;;
48859;SDS011;34679;51.436;-2.518;2023-01-20T09:52:09;6.00;;;2.40;;
48859;SDS011;34679;51.436;-2.518;2023-01-20T09:55:09;14.45;;;2.50;;
48859;SDS011;34679;51.436;-2.518;2023-01-20T09:57:39;8.07;;;2.85;;
48859;SDS011;34679;51.436;-2.518;2023-01-20T10:00:21;9.57;;;2.80;;
48859;SDS011;34679;51.436;-2.518;2023-01-20T10:02:51;9.95;;;2.90;;
48859;SDS011;34679;51.436;-2.518;2023-01-20T10:05:24;12.93;;;2.85;;
48859;SDS011;34679;51.436;-2.518;2023-01-20T10:10:30;8.32;;;2.83;;
48859;SDS011;34679;51.436;-2.518;2023-01-20T10:13:11;5.32;;;2.67;;
48859;SDS011;34679;51.436;-2.518;2023-01-20T10:15:52;11.52;;;2.92;;
48859;SDS011;34679;51.436;-2.518;2023-01-20T10:21:03;10.23;;;2.35;;
48859;SDS011;34679;51.436;-2.518;2023-01-20T10:26:15;4.47;;;2.00;;
48859;SDS011;34679;51.436;-2.518;2023-01-20T10:28:48;33.47;;;3.25;;
48859;SDS011;34679;51.436;-2.518;2023-01-20T10:31:27;9.38;;;1.83;;
48859;SDS011;34679;51.436;-2.518;2023-01-20T10:33:57;10.57;;;1.95;;
48859;SDS011;34679;51.436;-2.518;2023-01-20T10:36:30;5.60;;;1.83;;
48859;SDS011;34679;51.436;-2.518;2023-01-20T10:39:11;6.90;;;1.42;;
48859;SDS011;34679;51.436;-2.518;2023-01-20T10:42:02;8.00;;;2.40;;
48859;SDS011;34679;51.436;-2.518;2023-01-20T10:44:31;11.65;;;2.05;;
48859;SDS011;34679;51.436;-2.518;2023-01-20T11:01:00;8.07;;;1.80;;
48859;SDS011;34679;51.436;-2.518;2023-01-20T11:03:39;7.95;;;2.08;;
48859;SDS011;34679;51.436;-2.518;2023-01-20T11:06:10;5.93;;;1.52;;
48859;SDS011;34679;51.436;-2.518;2023-01-20T11:08:45;7.65;;;1.67;;
48859;SDS011;34679;51.436;-2.518;2023-01-20T11:11:14;17.17;;;1.48;;
48859;SDS011;34679;51.436;-2.518;2023-01-20T11:13:43;3.42;;;1.40;;
48859;SDS011;34679;51.436;-2.518;2023-01-20T11:19:08;8.60;;;1.35;;
48859;SDS011;34679;51.436;-2.518;2023-01-20T11:21:35;2.47;;;1.20;;
48859;SDS011;34679;51.436;-2.518;2023-01-20T11:24:26;8.07;;;1.02;;
48859;SDS011;34679;51.436;-2.518;2023-01-20T11:27:10;6.50;;;1.33;;
48859;SDS011;34679;51.436;-2.518;2023-01-20T11:29:44;4.22;;;1.20;;
48859;SDS011;34679;51.436;-2.518;2023-01-20T11:32:24;3.47;;;1.05;;
48859;SDS011;34679;51.436;-2.518;2023-01-20T11:34:54;10.48;;;2.33;;
48859;SDS011;34679;51.436;-2.518;2023-01-20T11:37:21;5.40;;;1.10;;
48859;SDS011;34679;51.436;-2.518;2023-01-20T11:42:24;7.95;;;1.50;;
48859;SDS011;34679;51.436;-2.518;2023-01-20T11:44:56;4.82;;;1.02;;
48859;SDS011;34679;51.436;-2.518;2023-01-20T11:47:28;4.95;;;1.08;;
48859;SDS011;34679;51.436;-2.518;2023-01-20T11:55:14;6.80;;;1.20;;
48859;SDS011;34679;51.436;-2.518;2023-01-20T11:57:46;7.28;;;1.88;;
48859;SDS011;34679;51.436;-2.518;2023-01-20T12:03:01;3.08;;;1.13;;
48859;SDS011;34679;51.436;-2.518;2023-01-20T12:08:55;7.90;;;1.75;;
48859;SDS011;34679;51.436;-2.518;2023-01-20T12:11:30;12.68;;;1.58;;
48859;SDS011;34679;51.436;-2.518;2023-01-20T12:22:20;6.15;;;1.48;;
48859;SDS011;34679;51.436;-2.518;2023-01-20T12:25:03;4.50;;;1.60;;
48859;SDS011;34679;51.436;-2.518;2023-01-20T12:28:02;7.00;;;1.33;;
48859;SDS011;34679;51.436;-2.518;2023-01-20T12:30:45;6.10;;;1.67;;
48859;SDS011;34679;51.436;-2.518;2023-01-20T12:33:38;6.15;;;1.60;;
48859;SDS011;34679;51.436;-2.518;2023-01-20T13:06:58;3.20;;;1.30;;
48859;SDS011;34679;51.436;-2.518;2023-01-20T13:09:51;2.75;;;1.10;;
48859;SDS011;34679;51.436;-2.518;2023-01-20T13:15:17;3.40;;;0.80;;
48859;SDS011;34679;51.436;-2.518;2023-01-20T13:20:49;4.07;;;1.35;;
48859;SDS011;34679;51.436;-2.518;2023-01-20T13:23:34;9.25;;;1.30;;
48859;SDS011;34679;51.436;-2.518;2023-01-20T13:26:02;8.23;;;1.33;;
48859;SDS011;34679;51.436;-2.518;2023-01-20T13:28:30;5.03;;;1.00;;
48859;SDS011;34679;51.436;-2.518;2023-01-20T13:30:56;3.13;;;1.90;;
48859;SDS011;34679;51.436;-2.518;2023-01-20T13:33:33;4.70;;;1.23;;
48859;SDS011;34679;51.436;-2.518;2023-01-20T13:36:22;8.10;;;1.48;;
48859;SDS011;34679;51.436;-2.518;2023-01-20T13:38:48;4.80;;;1.42;;
48859;SDS011;34679;51.436;-2.518;2023-01-20T13:44:24;4.30;;;1.10;;
48859;SDS011;34679;51.436;-2.518;2023-01-20T13:46:50;5.00;;;1.27;;
48859;SDS011;34679;51.436;-2.518;2023-01-20T13:49:20;2.10;;;1.00;;
48859;SDS011;34679;51.436;-2.518;2023-01-20T13:51:46;5.78;;;1.27;;
48859;SDS011;34679;51.436;-2.518;2023-01-20T13:56:47;7.68;;;1.88;;
48859;SDS011;34679;51.436;-2.518;2023-01-20T13:59:13;2.95;;;1.30;;
48859;SDS011;34679;51.436;-2.518;2023-01-20T14:01:39;12.30;;;2.05;;
48859;SDS011;34679;51.436;-2.518;2023-01-20T14:04:15;8.68;;;1.60;;
48859;SDS011;34679;51.436;-2.518;2023-01-20T14:06:49;3.90;;;1.35;;
48859;SDS011;34679;51.436;-2.518;2023-01-20T14:09:20;9.10;;;1.20;;
48859;SDS011;34679;51.436;-2.518;2023-01-20T14:11:55;8.80;;;1.70;;
48859;SDS011;34679;51.436;-2.518;2023-01-20T14:14:25;5.97;;;1.45;;
48859;SDS011;34679;51.436;-2.518;2023-01-20T14:16:51;4.85;;;1.27;;
48859;SDS011;34679;51.436;-2.518;2023-01-20T14:19:26;8.02;;;1.20;;
48859;SDS011;34679;51.436;-2.518;2023-01-20T14:22:00;8.75;;;1.30;;
48859;SDS011;34679;51.436;-2.518;2023-01-20T14:32:45;3.97;;;1.35;;
48859;SDS011;34679;51.436;-2.518;2023-01-20T14:35:12;6.63;;;1.13;;
48859;SDS011;34679;51.436;-2.518;2023-01-20T14:37:47;5.53;;;1.58;;
48859;SDS011;34679;51.436;-2.518;2023-01-20T14:40:21;2.30;;;0.98;;
48859;SDS011;34679;51.436;-2.518;2023-01-20T14:43:13;2.92;;;1.23;;
48859;SDS011;34679;51.436;-2.518;2023-01-20T14:45:42;6.47;;;1.08;;
48859;SDS011;34679;51.436;-2.518;2023-01-20T14:48:11;2.38;;;1.60;;
48859;SDS011;34679;51.436;-2.518;2023-01-20T14:50:38;5.15;;;0.88;;
48859;SDS011;34679;51.436;-2.518;2023-01-20T14:53:04;2.28;;;1.20;;
48859;SDS011;34679;51.436;-2.518;2023-01-20T14:55:31;4.03;;;0.98;;
48859;SDS011;34679;51.436;-2.518;2023-01-20T14:57:58;4.35;;;1.25;;
48859;SDS011;34679;51.436;-2.518;2023-01-20T15:05:56;4.28;;;0.95;;
48859;SDS011;34679;51.436;-2.518;2023-01-20T15:08:26;10.23;;;2.53;;
48859;SDS011;34679;51.436;-2.518;2023-01-20T15:13:42;9.95;;;2.17;;
48859;SDS011;34679;51.436;-2.518;2023-01-20T15:21:43;7.47;;;3.10;;
48859;SDS011;34679;51.436;-2.518;2023-01-20T15:24:22;9.55;;;2.63;;
48859;SDS011;34679;51.436;-2.518;2023-01-20T15:26:53;5.40;;;2.00;;
48859;SDS011;34679;51.436;-2.518;2023-01-20T15:29:21;8.13;;;2.00;;
48859;SDS011;34679;51.436;-2.518;2023-01-20T15:31:48;7.38;;;2.72;;
48859;SDS011;34679;51.436;-2.518;2023-01-20T15:34:15;9.93;;;2.92;;
48859;SDS011;34679;51.436;-2.518;2023-01-20T15:36:40;11.20;;;2.20;;
48859;SDS011;34679;51.436;-2.518;2023-01-20T15:39:19;3.97;;;1.85;;
48859;SDS011;34679;51.436;-2.518;2023-01-20T15:41:46;7.38;;;1.85;;
48859;SDS011;34679;51.436;-2.518;2023-01-20T15:44:13;10.35;;;2.03;;
48859;SDS011;34679;51.436;-2.518;2023-01-20T15:46:39;6.25;;;1.80;;
48859;SDS011;34679;51.436;-2.518;2023-01-20T15:49:11;5.95;;;1.98;;
48859;SDS011;34679;51.436;-2.518;2023-01-20T15:51:38;9.27;;;2.50;;
48859;SDS011;34679;51.436;-2.518;2023-01-20T15:54:04;9.98;;;2.08;;
48859;SDS011;34679;51.436;-2.518;2023-01-20T15:56:33;8.35;;;2.03;;
48859;SDS011;34679;51.436;-2.518;2023-01-20T15:59:08;6.78;;;2.50;;
48859;SDS011;34679;51.436;-2.518;2023-01-20T16:01:42;10.10;;;2.08;;
48859;SDS011;34679;51.436;-2.518;2023-01-20T16:04:13;7.65;;;1.77;;
48859;SDS011;34679;51.436;-2.518;2023-01-20T16:06:39;7.53;;;2.05;;
48859;SDS011;34679;51.436;-2.518;2023-01-20T16:09:13;10.27;;;2.13;;
48859;SDS011;34679;51.436;-2.518;2023-01-20T16:11:44;8.55;;;2.85;;
48859;SDS011;34679;51.436;-2.518;2023-01-20T16:14:11;6.93;;;2.38;;
48859;SDS011;34679;51.436;-2.518;2023-01-20T16:16:37;4.53;;;1.88;;
48859;SDS011;34679;51.436;-2.518;2023-01-20T16:19:02;8.95;;;2.58;;
48859;SDS011;34679;51.436;-2.518;2023-01-20T16:21:28;5.72;;;1.83;;
48859;SDS011;34679;51.436;-2.518;2023-01-20T16:23:54;9.68;;;2.10;;
48859;SDS011;34679;51.436;-2.518;2023-01-20T16:26:21;8.48;;;2.33;;
48859;SDS011;34679;51.436;-2.518;2023-01-20T16:28:48;9.13;;;2.00;;
48859;SDS011;34679;51.436;-2.518;2023-01-20T16:31:15;4.10;;;1.90;;
48859;SDS011;34679;51.436;-2.518;2023-01-20T16:33:43;9.27;;;2.58;;
48859;SDS011;34679;51.436;-2.518;2023-01-20T16:36:12;10.38;;;2.13;;
48859;SDS011;34679;51.436;-2.518;2023-01-20T16:38:42;17.75;;;4.25;;
48859;SDS011;34679;51.436;-2.518;2023-01-20T16:41:16;13.98;;;4.47;;
48859;SDS011;34679;51.436;-2.518;2023-01-20T16:43:48;9.25;;;4.80;;
48859;SDS011;34679;51.436;-2.518;2023-01-20T16:46:16;10.05;;;4.40;;
48859;SDS011;34679;51.436;-2.518;2023-01-20T16:48:43;14.13;;;4.35;;
48859;SDS011;34679;51.436;-2.518;2023-01-20T16:51:12;5.93;;;3.70;;
48859;SDS011;34679;51.436;-2.518;2023-01-20T16:53:44;9.38;;;3.53;;
48859;SDS011;34679;51.436;-2.518;2023-01-20T16:56:13;10.70;;;3.90;;
48859;SDS011;34679;51.436;-2.518;2023-01-20T16:58:45;9.45;;;4.28;;
48859;SDS011;34679;51.436;-2.518;2023-01-20T17:01:16;8.35;;;3.83;;
48859;SDS011;34679;51.436;-2.518;2023-01-20T17:03:46;12.32;;;4.57;;
48859;SDS011;34679;51.436;-2.518;2023-01-20T17:06:13;11.02;;;3.95;;
48859;SDS011;34679;51.436;-2.518;2023-01-20T17:08:43;10.55;;;4.47;;
48859;SDS011;34679;51.436;-2.518;2023-01-20T17:11:15;17.10;;;4.75;;